Time;durP1;ratioP1;P1;durP2;ratioP2;P2;SDS_P1;SDS_P2;PMS_P1;PMS_P2;Temp;Humidity;BMP_temperature;BMP_pressure;BME280_temperature;BME280_humidity;BME280_pressure;Samples;Min_cycle;Max_cycle;Signal;HPM_P1;HPM_P2
2022/01/03 00:01:20;;;;;;;7.97;5.80;;;;;;;;;;4980468;28;20238;-77
2022/01/03 00:03:48;;;;;;;6.53;5.67;;;;;;;;;;5013554;28;20223;-77
2022/01/03 00:06:14;;;;;;;5.20;4.80;;;;;;;;;;4981079;28;20224;-77
2022/01/03 00:08:43;;;;;;;5.23;4.40;;;;;;;;;;5013718;28;20220;-77
2022/01/03 00:11:11;;;;;;;5.03;4.53;;;;;;;;;;5032042;28;20250;-76
2022/01/03 00:13:42;;;;;;;4.50;4.10;;;;;;;;;;4994013;28;20271;-76
2022/01/03 00:16:08;;;;;;;4.40;3.50;;;;;;;;;;4986504;28;20706;-77
2022/01/03 00:18:35;;;;;;;5.27;3.53;;;;;;;;;;4993418;28;20228;-77
2022/01/03 00:21:01;;;;;;;4.10;3.33;;;;;;;;;;4993819;28;20256;-76
2022/01/03 00:23:30;;;;;;;4.53;3.53;;;;;;;;;;4983490;28;20219;-76
2022/01/03 00:26:02;;;;;;;4.20;3.40;;;;;;;;;;5016482;28;20212;-77
2022/01/03 00:28:38;;;;;;;3.53;2.53;;;;;;;;;;5029708;28;20224;-77
2022/01/03 00:31:06;;;;;;;3.30;2.67;;;;;;;;;;5012120;28;20278;-76
2022/01/03 00:33:32;;;;;;;3.83;2.50;;;;;;;;;;4999103;28;20286;-76
2022/01/03 00:35:59;;;;;;;3.00;2.33;;;;;;;;;;5032411;28;20215;-77
2022/01/03 00:38:29;;;;;;;6.63;2.40;;;;;;;;;;5043264;28;20280;-76
2022/01/03 00:40:59;;;;;;;1.80;1.70;;;;;;;;;;5028580;28;20315;-76
2022/01/03 00:43:25;;;;;;;2.23;1.50;;;;;;;;;;4995319;28;20208;-77
2022/01/03 00:45:55;;;;;;;4.27;1.90;;;;;;;;;;4996943;28;20217;-76
2022/01/03 00:48:22;;;;;;;2.13;1.80;;;;;;;;;;4996556;28;20295;-77
2022/01/03 00:50:47;;;;;;;2.30;2.10;;;;;;;;;;5012110;28;20274;-77
2022/01/03 00:53:15;;;;;;;3.40;2.30;;;;;;;;;;5011714;28;20219;-77
2022/01/03 00:56:03;;;;;;;3.27;2.07;;;;;;;;;;4991900;28;20224;-77
2022/01/03 00:58:52;;;;;;;2.80;2.10;;;;;;;;;;4994892;28;20295;-77
2022/01/03 01:01:20;;;;;;;2.37;2.07;;;;;;;;;;5013233;28;20609;-77
2022/01/03 01:03:47;;;;;;;2.47;2.27;;;;;;;;;;5014086;28;20642;-77
2022/01/03 01:06:17;;;;;;;2.57;2.37;;;;;;;;;;5035298;28;20218;-77
2022/01/03 01:08:43;;;;;;;2.83;1.93;;;;;;;;;;5018846;28;20273;-76
2022/01/03 01:11:10;;;;;;;2.73;1.80;;;;;;;;;;5015808;28;20302;-77
2022/01/03 01:13:36;;;;;;;2.47;1.90;;;;;;;;;;4998984;28;20266;-76
2022/01/03 01:16:04;;;;;;;3.63;1.67;;;;;;;;;;5031743;28;20299;-77
2022/01/03 01:18:37;;;;;;;1.73;1.47;;;;;;;;;;5018213;28;20216;-77
2022/01/03 01:21:04;;;;;;;1.70;1.40;;;;;;;;;;5015996;28;20614;-76
2022/01/03 01:23:30;;;;;;;1.87;1.10;;;;;;;;;;5018978;28;20303;-77
2022/01/03 01:28:45;;;;;;;0.90;0.60;;;;;;;;;;5018469;28;20212;-77
2022/01/03 01:31:15;;;;;;;1.20;0.57;;;;;;;;;;5026845;28;20213;-77
2022/01/03 01:33:41;;;;;;;1.63;0.60;;;;;;;;;;4998402;28;20220;-77
2022/01/03 01:36:09;;;;;;;1.23;0.63;;;;;;;;;;5014596;28;20207;-77
2022/01/03 01:38:38;;;;;;;0.50;0.50;;;;;;;;;;5020753;28;20216;-78
2022/01/03 01:41:07;;;;;;;0.87;0.57;;;;;;;;;;5037760;28;20708;-77
2022/01/03 01:43:39;;;;;;;1.73;0.57;;;;;;;;;;5017222;28;20294;-76
2022/01/03 01:46:09;;;;;;;2.63;0.50;;;;;;;;;;5003798;28;20224;-77
2022/01/03 01:48:39;;;;;;;0.83;0.60;;;;;;;;;;4999413;28;20246;-78
2022/01/03 01:51:08;;;;;;;1.27;0.70;;;;;;;;;;4996637;28;20217;-77
2022/01/03 01:53:42;;;;;;;1.40;0.60;;;;;;;;;;4998365;28;20247;-77
2022/01/03 01:56:20;;;;;;;1.40;0.70;;;;;;;;;;5027427;28;20221;-76
2022/01/03 01:59:07;;;;;;;3.10;0.70;;;;;;;;;;4994695;28;20223;-77
2022/01/03 02:01:40;;;;;;;0.60;0.60;;;;;;;;;;5026387;28;20247;-78
2022/01/03 02:04:28;;;;;;;1.87;0.80;;;;;;;;;;5034535;28;20243;-77
2022/01/03 02:06:57;;;;;;;1.43;0.80;;;;;;;;;;5032586;28;20223;-77
2022/01/03 02:09:43;;;;;;;2.30;1.00;;;;;;;;;;4982112;28;20232;-77
2022/01/03 02:12:14;;;;;;;2.07;0.97;;;;;;;;;;5018322;28;20577;-77
2022/01/03 02:14:42;;;;;;;2.53;0.80;;;;;;;;;;5004148;28;20339;-77
2022/01/03 02:17:13;;;;;;;1.27;0.90;;;;;;;;;;5000107;28;20223;-77
2022/01/03 02:19:41;;;;;;;1.57;0.90;;;;;;;;;;4998995;28;20397;-77
2022/01/03 02:22:10;;;;;;;2.43;0.70;;;;;;;;;;5031611;28;20306;-77
2022/01/03 02:24:42;;;;;;;2.30;1.00;;;;;;;;;;5004238;28;20348;-77
2022/01/03 02:27:13;;;;;;;3.40;1.00;;;;;;;;;;5016473;28;20752;-75
2022/01/03 02:29:38;;;;;;;2.10;0.90;;;;;;;;;;4998075;28;20686;-76
2022/01/03 02:32:04;;;;;;;2.90;1.00;;;;;;;;;;5012826;28;20272;-77
2022/01/03 02:34:34;;;;;;;1.40;1.10;;;;;;;;;;5018850;28;20310;-77
2022/01/03 02:36:59;;;;;;;2.90;0.83;;;;;;;;;;5021722;28;20701;-77
2022/01/03 02:39:28;;;;;;;2.97;0.83;;;;;;;;;;4997229;28;20261;-76
2022/01/03 02:41:56;;;;;;;3.53;0.90;;;;;;;;;;4996514;28;20226;-77
2022/01/03 02:44:22;;;;;;;1.73;0.80;;;;;;;;;;5005356;28;20223;-77
2022/01/03 02:46:50;;;;;;;0.90;0.70;;;;;;;;;;4995449;28;20212;-77
2022/01/03 02:49:15;;;;;;;2.47;0.93;;;;;;;;;;5030651;28;20216;-77
2022/01/03 02:51:47;;;;;;;2.57;1.10;;;;;;;;;;5013888;28;20212;-77
2022/01/03 02:54:16;;;;;;;2.67;1.20;;;;;;;;;;5013892;28;20593;-77
2022/01/03 02:56:46;;;;;;;6.40;1.63;;;;;;;;;;5034169;28;20634;-77
2022/01/03 02:59:16;;;;;;;5.37;1.87;;;;;;;;;;4998048;28;20224;-77
2022/01/03 03:01:43;;;;;;;4.43;2.00;;;;;;;;;;5007102;28;20630;-78
2022/01/03 03:04:09;;;;;;;5.47;2.57;;;;;;;;;;5017867;28;20219;-77
2022/01/03 03:06:37;;;;;;;4.90;2.87;;;;;;;;;;5011099;28;20218;-77
2022/01/03 03:09:07;;;;;;;6.57;3.20;;;;;;;;;;4996968;28;20705;-77
2022/01/03 03:11:38;;;;;;;6.57;3.17;;;;;;;;;;5020477;28;20238;-77
2022/01/03 03:14:07;;;;;;;7.37;3.30;;;;;;;;;;5023808;28;20234;-77
2022/01/03 03:16:44;;;;;;;8.07;3.90;;;;;;;;;;4997731;28;20208;-77
2022/01/03 03:19:10;;;;;;;6.83;4.00;;;;;;;;;;5029091;28;20220;-77
2022/01/03 03:21:35;;;;;;;9.17;4.03;;;;;;;;;;4997034;28;20297;-77
2022/01/03 03:24:03;;;;;;;7.27;3.83;;;;;;;;;;5015833;28;20263;-76
2022/01/03 03:26:28;;;;;;;6.30;3.93;;;;;;;;;;5037577;28;20223;-77
2022/01/03 03:28:54;;;;;;;10.00;4.60;;;;;;;;;;5001069;28;20215;-77
2022/01/03 03:31:21;;;;;;;7.73;4.43;;;;;;;;;;5014424;28;20240;-78
2022/01/03 03:33:49;;;;;;;8.77;3.93;;;;;;;;;;5013039;28;20291;-77
2022/01/03 03:36:14;;;;;;;12.07;3.93;;;;;;;;;;4996907;28;20231;-77
2022/01/03 03:38:42;;;;;;;9.27;3.77;;;;;;;;;;5017268;28;20215;-77
2022/01/03 03:41:13;;;;;;;11.23;4.00;;;;;;;;;;5017703;28;20234;-77
2022/01/03 03:43:46;;;;;;;13.77;4.37;;;;;;;;;;5019756;28;20885;-77
2022/01/03 03:46:12;;;;;;;10.50;3.80;;;;;;;;;;4996597;28;20239;-77
2022/01/03 03:48:39;;;;;;;12.23;4.57;;;;;;;;;;5012487;28;20685;-77
2022/01/03 03:51:05;;;;;;;13.23;4.37;;;;;;;;;;4996587;28;20214;-77
2022/01/03 03:53:35;;;;;;;15.57;4.57;;;;;;;;;;5013573;28;20216;-77
2022/01/03 03:56:01;;;;;;;14.90;4.50;;;;;;;;;;4981358;28;20631;-77
2022/01/03 03:58:30;;;;;;;19.03;5.40;;;;;;;;;;4992090;28;20221;-77
2022/01/03 04:01:00;;;;;;;18.23;3.70;;;;;;;;;;4992973;28;20231;-77
2022/01/03 04:03:27;;;;;;;14.23;4.10;;;;;;;;;;5027724;28;20290;-77
2022/01/03 04:05:52;;;;;;;16.17;4.77;;;;;;;;;;5049649;28;20322;-77
2022/01/03 04:08:18;;;;;;;13.13;3.47;;;;;;;;;;5002605;28;20234;-77
2022/01/03 04:10:43;;;;;;;14.67;4.93;;;;;;;;;;4996894;28;20311;-77
2022/01/03 04:13:12;;;;;;;17.00;4.43;;;;;;;;;;5005161;28;20705;-76
2022/01/03 04:15:41;;;;;;;12.27;3.67;;;;;;;;;;5016304;28;20262;-77
2022/01/03 04:18:09;;;;;;;15.43;4.10;;;;;;;;;;5012555;28;20307;-77
2022/01/03 04:20:36;;;;;;;11.93;3.53;;;;;;;;;;5013246;28;20306;-77
2022/01/03 04:23:02;;;;;;;15.63;3.50;;;;;;;;;;4988594;28;20303;-76
2022/01/03 04:25:30;;;;;;;16.10;3.70;;;;;;;;;;5004156;28;20302;-76
2022/01/03 04:27:57;;;;;;;10.77;3.03;;;;;;;;;;5004159;28;20215;-76
2022/01/03 04:30:23;;;;;;;12.70;3.43;;;;;;;;;;5033725;28;20230;-76
2022/01/03 04:32:48;;;;;;;11.87;3.03;;;;;;;;;;4996230;28;20296;-76
2022/01/03 04:35:16;;;;;;;13.43;3.47;;;;;;;;;;4987903;28;20306;-76
2022/01/03 04:37:42;;;;;;;12.70;3.53;;;;;;;;;;5020713;28;20217;-76
2022/01/03 04:40:14;;;;;;;13.67;3.83;;;;;;;;;;5003411;28;20223;-76
2022/01/03 04:42:42;;;;;;;16.30;3.23;;;;;;;;;;4999808;28;20216;-76
2022/01/03 04:45:09;;;;;;;12.70;3.43;;;;;;;;;;5002676;28;20738;-76
2022/01/03 04:47:35;;;;;;;10.40;3.43;;;;;;;;;;5016552;28;20250;-76
2022/01/03 04:50:03;;;;;;;12.77;3.00;;;;;;;;;;5016258;28;20218;-76
2022/01/03 04:52:31;;;;;;;9.30;3.30;;;;;;;;;;5000266;28;20227;-76
2022/01/03 04:54:58;;;;;;;11.93;3.07;;;;;;;;;;5015939;28;20212;-76
2022/01/03 04:57:25;;;;;;;13.07;3.53;;;;;;;;;;5016012;28;20220;-76
2022/01/03 04:59:51;;;;;;;11.23;3.23;;;;;;;;;;5035528;28;20298;-75
2022/01/03 05:02:18;;;;;;;13.37;3.20;;;;;;;;;;5033631;28;20239;-76
2022/01/03 05:04:44;;;;;;;10.30;2.70;;;;;;;;;;5035174;28;20230;-76
2022/01/03 05:07:09;;;;;;;9.87;3.20;;;;;;;;;;4983664;28;20224;-75
2022/01/03 05:09:36;;;;;;;11.20;3.13;;;;;;;;;;5015739;28;20239;-76
2022/01/03 05:12:07;;;;;;;13.40;3.37;;;;;;;;;;5002875;28;20298;-78
2022/01/03 05:14:35;;;;;;;10.20;3.13;;;;;;;;;;5022946;28;20307;-78
2022/01/03 05:17:01;;;;;;;9.27;3.07;;;;;;;;;;5015860;28;20243;-78
2022/01/03 05:19:27;;;;;;;17.40;4.03;;;;;;;;;;5014878;28;20228;-77
2022/01/03 05:21:52;;;;;;;14.07;3.70;;;;;;;;;;4999135;28;20229;-77
2022/01/03 05:24:18;;;;;;;13.57;3.90;;;;;;;;;;4993986;28;20227;-77
2022/01/03 05:26:45;;;;;;;12.37;3.60;;;;;;;;;;5035106;28;20223;-77
2022/01/03 05:29:15;;;;;;;15.17;3.40;;;;;;;;;;5042093;28;20224;-77
2022/01/03 05:31:43;;;;;;;13.03;3.03;;;;;;;;;;5015896;28;20283;-78
2022/01/03 05:34:11;;;;;;;13.03;4.57;;;;;;;;;;5007921;28;20215;-78
2022/01/03 05:36:39;;;;;;;11.27;3.40;;;;;;;;;;5036112;28;20226;-78
2022/01/03 05:39:07;;;;;;;11.33;2.80;;;;;;;;;;5043963;28;20212;-77
2022/01/03 05:41:38;;;;;;;14.23;3.33;;;;;;;;;;5014901;28;20251;-77
2022/01/03 05:44:04;;;;;;;10.63;3.07;;;;;;;;;;5016506;28;20235;-77
2022/01/03 05:46:30;;;;;;;12.80;3.33;;;;;;;;;;5031879;28;20226;-77
2022/01/03 05:48:56;;;;;;;9.17;2.63;;;;;;;;;;5020065;28;20215;-77
2022/01/03 05:51:21;;;;;;;16.10;3.67;;;;;;;;;;5020995;28;20303;-77
2022/01/03 05:53:49;;;;;;;10.97;2.60;;;;;;;;;;4998508;28;20237;-77
2022/01/03 05:56:15;;;;;;;9.60;2.50;;;;;;;;;;4998056;28;20712;-77
2022/01/03 05:58:43;;;;;;;16.23;3.17;;;;;;;;;;5001011;28;20713;-77
2022/01/03 06:01:11;;;;;;;12.37;3.00;;;;;;;;;;5007901;28;20646;-77
2022/01/03 06:03:41;;;;;;;14.10;3.03;;;;;;;;;;5015347;28;20307;-77
2022/01/03 06:08:38;;;;;;;18.93;2.93;;;;;;;;;;4996002;28;20300;-77
2022/01/03 06:11:07;;;;;;;8.10;2.87;;;;;;;;;;5019095;28;20273;-77
2022/01/03 06:13:33;;;;;;;14.83;3.40;;;;;;;;;;5029529;28;20291;-77
2022/01/03 06:16:03;;;;;;;13.20;3.17;;;;;;;;;;4983125;28;20602;-77
2022/01/03 06:18:32;;;;;;;12.13;2.97;;;;;;;;;;4999680;28;20286;-77
2022/01/03 06:21:05;;;;;;;15.27;3.17;;;;;;;;;;5016468;28;20223;-77
2022/01/03 06:23:36;;;;;;;12.33;2.70;;;;;;;;;;5004380;28;20212;-77
2022/01/03 06:26:01;;;;;;;12.53;2.93;;;;;;;;;;5001130;28;20311;-77
2022/01/03 06:28:47;;;;;;;18.20;3.13;;;;;;;;;;5003156;28;20212;-77
2022/01/03 06:31:17;;;;;;;13.27;3.03;;;;;;;;;;5032576;28;20797;-77
2022/01/03 06:33:42;;;;;;;8.60;2.97;;;;;;;;;;5019302;28;20294;-77
2022/01/03 06:36:08;;;;;;;12.90;2.73;;;;;;;;;;5003097;28;20255;-77
2022/01/03 06:38:36;;;;;;;15.17;2.90;;;;;;;;;;5018017;28;20286;-77
2022/01/03 06:41:04;;;;;;;16.57;3.63;;;;;;;;;;5017825;28;20255;-77
2022/01/03 06:43:30;;;;;;;16.30;3.63;;;;;;;;;;4999033;28;20681;-77
2022/01/03 06:45:58;;;;;;;12.00;3.03;;;;;;;;;;4996765;28;20215;-76
2022/01/03 06:48:26;;;;;;;11.30;3.23;;;;;;;;;;5023884;28;20223;-78
2022/01/03 06:50:55;;;;;;;13.07;2.90;;;;;;;;;;5008888;28;20209;-78
2022/01/03 06:53:20;;;;;;;14.90;4.00;;;;;;;;;;4988118;28;20701;-78
2022/01/03 06:55:46;;;;;;;21.13;3.50;;;;;;;;;;5012308;28;20337;-78
2022/01/03 06:58:14;;;;;;;14.37;3.87;;;;;;;;;;4978411;28;20212;-77
2022/01/03 07:00:43;;;;;;;16.80;3.57;;;;;;;;;;4993510;28;20307;-77
2022/01/03 07:03:12;;;;;;;17.33;3.57;;;;;;;;;;4996538;28;20212;-77
2022/01/03 07:05:37;;;;;;;13.77;3.50;;;;;;;;;;5003190;28;20758;-77
2022/01/03 07:08:03;;;;;;;19.37;3.70;;;;;;;;;;5014194;28;20216;-77
2022/01/03 07:10:30;;;;;;;19.10;4.33;;;;;;;;;;5005132;28;20218;-77
2022/01/03 07:12:56;;;;;;;15.17;4.47;;;;;;;;;;5053131;28;20290;-77
2022/01/03 07:20:53;;;;;;;15.10;4.20;;;;;;;;;;5024880;28;20212;-77
2022/01/03 07:23:22;;;;;;;18.00;4.20;;;;;;;;;;5033620;28;20286;-77
2022/01/03 07:25:49;;;;;;;17.63;4.07;;;;;;;;;;4999936;28;20212;-78
2022/01/03 07:28:15;;;;;;;17.13;3.90;;;;;;;;;;5030050;28;20262;-77
2022/01/03 07:30:41;;;;;;;17.10;4.80;;;;;;;;;;5019314;28;20212;-77
2022/01/03 07:33:06;;;;;;;19.07;5.27;;;;;;;;;;5034089;28;20211;-77
2022/01/03 07:35:34;;;;;;;16.10;4.50;;;;;;;;;;5046871;28;20677;-78
2022/01/03 07:38:01;;;;;;;16.73;4.80;;;;;;;;;;5031951;28;20208;-77
2022/01/03 07:40:29;;;;;;;20.70;5.13;;;;;;;;;;4999932;28;20633;-78
2022/01/03 07:42:57;;;;;;;19.90;5.27;;;;;;;;;;5032922;28;20219;-76
2022/01/03 07:45:25;;;;;;;19.80;5.10;;;;;;;;;;5001498;28;20740;-76
2022/01/03 07:47:53;;;;;;;22.03;5.00;;;;;;;;;;5015506;28;20303;-77
2022/01/03 07:50:22;;;;;;;22.27;5.20;;;;;;;;;;4981291;28;20232;-76
2022/01/03 07:52:47;;;;;;;23.10;4.90;;;;;;;;;;4994434;28;20308;-76
2022/01/03 07:55:13;;;;;;;26.00;5.50;;;;;;;;;;5003046;28;20219;-77
2022/01/03 07:57:38;;;;;;;20.20;5.00;;;;;;;;;;5017700;28;20581;-78
2022/01/03 08:00:05;;;;;;;25.10;5.60;;;;;;;;;;5034957;28;20227;-77
2022/01/03 08:02:41;;;;;;;24.00;5.03;;;;;;;;;;5019798;28;20223;-77
2022/01/03 08:05:08;;;;;;;21.83;4.60;;;;;;;;;;5003289;28;20219;-77
2022/01/03 08:07:39;;;;;;;20.10;4.33;;;;;;;;;;5003108;28;20294;-78
2022/01/03 08:10:08;;;;;;;18.10;4.50;;;;;;;;;;5022706;28;20291;-77
2022/01/03 08:12:33;;;;;;;18.73;4.63;;;;;;;;;;5036618;28;20229;-77
2022/01/03 08:14:59;;;;;;;22.03;4.70;;;;;;;;;;5022610;28;20215;-78
2022/01/03 08:17:25;;;;;;;17.00;4.20;;;;;;;;;;5009648;28;20220;-78
2022/01/03 08:19:51;;;;;;;18.37;4.03;;;;;;;;;;5003269;28;20219;-78
2022/01/03 08:22:22;;;;;;;17.57;4.90;;;;;;;;;;5046557;28;20582;-77
2022/01/03 08:24:50;;;;;;;26.17;5.03;;;;;;;;;;5037008;28;20689;-77
2022/01/03 08:27:18;;;;;;;15.73;3.87;;;;;;;;;;5043501;28;20333;-77
2022/01/03 08:29:48;;;;;;;20.63;4.40;;;;;;;;;;5000954;28;20247;-77
2022/01/03 08:32:16;;;;;;;20.07;4.37;;;;;;;;;;5039365;28;20221;-76
2022/01/03 08:34:44;;;;;;;19.87;5.13;;;;;;;;;;5016707;28;20216;-77
2022/01/03 08:37:16;;;;;;;19.63;4.03;;;;;;;;;;5016626;28;20220;-76
2022/01/03 08:39:42;;;;;;;17.57;4.23;;;;;;;;;;5027792;28;20217;-77
2022/01/03 08:42:07;;;;;;;16.93;5.07;;;;;;;;;;5003474;28;20250;-77
2022/01/03 08:44:37;;;;;;;16.40;5.10;;;;;;;;;;5016634;28;20705;-77
2022/01/03 08:47:06;;;;;;;19.20;4.30;;;;;;;;;;5006762;28;20265;-77
2022/01/03 08:49:34;;;;;;;20.97;5.00;;;;;;;;;;5019426;28;20227;-77
2022/01/03 08:52:00;;;;;;;20.50;4.60;;;;;;;;;;5028283;28;20624;-77
2022/01/03 08:54:28;;;;;;;18.83;4.60;;;;;;;;;;4996869;28;20682;-77
2022/01/03 08:56:56;;;;;;;15.30;3.63;;;;;;;;;;5005379;28;20211;-77
2022/01/03 08:59:25;;;;;;;23.43;4.73;;;;;;;;;;5035900;28;20208;-77
2022/01/03 09:01:50;;;;;;;16.23;4.13;;;;;;;;;;5029959;28;20767;-77
2022/01/03 09:04:16;;;;;;;18.13;3.67;;;;;;;;;;5019599;28;20298;-77
2022/01/03 09:06:41;;;;;;;17.77;4.50;;;;;;;;;;5052631;28;20649;-77
2022/01/03 09:09:09;;;;;;;15.27;3.97;;;;;;;;;;5016155;28;20224;-77
2022/01/03 09:11:34;;;;;;;19.13;3.97;;;;;;;;;;4999745;28;20277;-76
2022/01/03 09:14:02;;;;;;;17.00;5.10;;;;;;;;;;5035293;28;20264;-77
2022/01/03 09:16:30;;;;;;;24.27;5.77;;;;;;;;;;5051852;28;20294;-77
2022/01/03 09:18:55;;;;;;;19.97;5.33;;;;;;;;;;4982661;28;20280;-77
2022/01/03 09:21:21;;;;;;;19.07;4.20;;;;;;;;;;4979768;28;20232;-77
2022/01/03 09:23:51;;;;;;;19.63;5.03;;;;;;;;;;5011305;28;20227;-77
2022/01/03 09:29:02;;;;;;;20.77;4.03;;;;;;;;;;5038486;28;20227;-77
2022/01/03 09:31:36;;;;;;;21.87;4.60;;;;;;;;;;5034753;28;20291;-77
2022/01/03 09:34:03;;;;;;;19.70;4.53;;;;;;;;;;5019138;28;20621;-77
2022/01/03 09:36:34;;;;;;;24.93;5.13;;;;;;;;;;5031883;28;20255;-77
2022/01/03 09:39:00;;;;;;;19.77;4.77;;;;;;;;;;5047498;28;20211;-77
2022/01/03 09:41:26;;;;;;;19.70;4.27;;;;;;;;;;5018376;28;20231;-75
2022/01/03 09:44:03;;;;;;;17.80;4.50;;;;;;;;;;5021689;28;20216;-77
2022/01/03 09:46:35;;;;;;;16.77;4.23;;;;;;;;;;5017106;28;20713;-77
2022/01/03 09:49:01;;;;;;;17.80;4.47;;;;;;;;;;5030083;28;20215;-77
2022/01/03 09:51:28;;;;;;;19.20;4.87;;;;;;;;;;5051165;28;20215;-77
2022/01/03 09:54:01;;;;;;;18.50;4.73;;;;;;;;;;5039147;28;20266;-77
2022/01/03 09:56:28;;;;;;;19.30;4.90;;;;;;;;;;5031593;28;21054;-77
2022/01/03 09:58:56;;;;;;;16.93;4.33;;;;;;;;;;5011253;28;20220;-77
2022/01/03 10:01:24;;;;;;;16.67;4.17;;;;;;;;;;5018585;28;20224;-77
2022/01/03 10:03:51;;;;;;;18.67;4.33;;;;;;;;;;5040551;28;20216;-77
2022/01/03 10:06:17;;;;;;;17.13;4.17;;;;;;;;;;5031489;28;20320;-77
2022/01/03 10:08:45;;;;;;;13.03;3.90;;;;;;;;;;5041032;28;20261;-77
2022/01/03 10:11:10;;;;;;;17.30;4.40;;;;;;;;;;5018043;28;20220;-77
2022/01/03 10:13:38;;;;;;;17.30;4.10;;;;;;;;;;5043894;28;20234;-77
2022/01/03 10:16:07;;;;;;;17.10;4.47;;;;;;;;;;5017963;28;20212;-77
2022/01/03 10:18:33;;;;;;;16.90;4.00;;;;;;;;;;5005618;28;20215;-77
2022/01/03 10:21:00;;;;;;;19.33;4.80;;;;;;;;;;5027902;28;20238;-76
2022/01/03 10:23:25;;;;;;;18.53;4.70;;;;;;;;;;4997894;28;20285;-77
2022/01/03 10:25:51;;;;;;;18.47;3.83;;;;;;;;;;5031181;28;20220;-76
2022/01/03 10:28:24;;;;;;;18.07;4.67;;;;;;;;;;5000830;28;20219;-77
2022/01/03 10:30:49;;;;;;;20.00;4.63;;;;;;;;;;5035061;28;20285;-77
2022/01/03 10:33:19;;;;;;;16.97;4.67;;;;;;;;;;5037587;28;20224;-77
2022/01/03 10:35:53;;;;;;;13.43;4.13;;;;;;;;;;4998451;28;20220;-77
2022/01/03 10:38:37;;;;;;;13.10;4.10;;;;;;;;;;5014806;28;20307;-76
2022/01/03 10:41:16;;;;;;;16.37;4.53;;;;;;;;;;5012282;28;20223;-76
2022/01/03 10:43:43;;;;;;;19.73;4.90;;;;;;;;;;5014565;28;20739;-75
2022/01/03 10:46:28;;;;;;;16.67;4.13;;;;;;;;;;5015009;28;20232;-76
2022/01/03 10:49:13;;;;;;;14.27;4.23;;;;;;;;;;5033054;28;20212;-76
2022/01/03 10:51:41;;;;;;;13.23;4.23;;;;;;;;;;5028569;28;20685;-75
2022/01/03 10:54:10;;;;;;;14.77;4.30;;;;;;;;;;5030135;28;20306;-75
2022/01/03 10:56:43;;;;;;;17.43;4.73;;;;;;;;;;5016697;28;20229;-75
2022/01/03 10:59:21;;;;;;;17.00;4.77;;;;;;;;;;5014335;28;20231;-75
2022/01/03 11:02:07;;;;;;;16.80;5.30;;;;;;;;;;5029183;28;20306;-75
2022/01/03 11:13:07;;;;;;;17.00;3.77;;;;;;;;;;5015666;28;20224;-75
2022/01/03 11:15:33;;;;;;;13.37;4.27;;;;;;;;;;5031765;28;20222;-75
2022/01/03 11:18:18;;;;;;;13.17;4.10;;;;;;;;;;5032180;28;20216;-76
2022/01/03 11:21:16;;;;;;;9.77;2.80;;;;;;;;;;5019566;28;20701;-74
2022/01/03 11:23:48;;;;;;;10.00;2.80;;;;;;;;;;5025716;28;20247;-75
2022/01/03 11:26:16;;;;;;;10.07;2.60;;;;;;;;;;4997233;28;20217;-77
2022/01/03 11:28:42;;;;;;;10.00;2.87;;;;;;;;;;4980982;28;20216;-77
2022/01/03 11:31:08;;;;;;;8.37;2.90;;;;;;;;;;5013919;28;20234;-78
2022/01/03 11:33:36;;;;;;;10.77;3.17;;;;;;;;;;5016983;28;20216;-78
2022/01/03 11:36:06;;;;;;;8.17;2.93;;;;;;;;;;5048909;28;20278;-78
2022/01/03 11:38:35;;;;;;;12.17;3.30;;;;;;;;;;5060629;28;20216;-81
2022/01/03 11:41:08;;;;;;;11.80;3.23;;;;;;;;;;5046161;28;20219;-78
2022/01/03 11:43:36;;;;;;;14.57;6.47;;;;;;;;;;5040660;28;20234;-77
2022/01/03 11:46:05;;;;;;;15.33;3.30;;;;;;;;;;5017457;28;20224;-77
2022/01/03 11:48:33;;;;;;;10.13;3.57;;;;;;;;;;5008219;28;20219;-77
2022/01/03 11:51:03;;;;;;;10.13;3.30;;;;;;;;;;5032620;28;20273;-76
2022/01/03 11:53:32;;;;;;;11.83;3.80;;;;;;;;;;5028919;28;20732;-76
2022/01/03 11:56:00;;;;;;;12.23;3.77;;;;;;;;;;5029639;28;20282;-76
2022/01/03 12:04:03;;;;;;;14.13;5.03;;;;;;;;;;5024681;28;20220;-76
2022/01/03 12:06:39;;;;;;;19.33;5.73;;;;;;;;;;4989612;28;20624;-77
2022/01/03 12:09:11;;;;;;;15.37;5.53;;;;;;;;;;5015340;28;20250;-77
2022/01/03 12:11:53;;;;;;;15.80;6.03;;;;;;;;;;5012226;28;20226;-76
2022/01/03 12:14:20;;;;;;;18.03;6.30;;;;;;;;;;5013523;28;20224;-76
2022/01/03 12:17:02;;;;;;;21.30;6.80;;;;;;;;;;5016286;28;20219;-76
2022/01/03 12:19:29;;;;;;;20.23;6.50;;;;;;;;;;5017584;28;20223;-76
2022/01/03 12:21:55;;;;;;;23.13;6.40;;;;;;;;;;5011373;28;20228;-76
2022/01/03 12:24:27;;;;;;;24.07;6.87;;;;;;;;;;4993213;28;20229;-74
2022/01/03 12:27:10;;;;;;;19.30;5.90;;;;;;;;;;5025617;28;20228;-75
2022/01/03 12:29:54;;;;;;;15.97;5.63;;;;;;;;;;5006259;28;20303;-75
2022/01/03 12:32:23;;;;;;;14.40;5.47;;;;;;;;;;5035518;28;20286;-74
2022/01/03 12:35:07;;;;;;;12.77;4.20;;;;;;;;;;5008791;28;20765;-76
2022/01/03 12:37:39;;;;;;;20.07;5.23;;;;;;;;;;5013382;28;20224;-76
2022/01/03 12:40:05;;;;;;;19.70;4.80;;;;;;;;;;4995091;28;20244;-76
2022/01/03 12:42:51;;;;;;;16.60;4.83;;;;;;;;;;5033909;28;20309;-76
2022/01/03 12:45:28;;;;;;;15.17;4.93;;;;;;;;;;5030123;28;20227;-77
2022/01/03 12:48:11;;;;;;;15.43;5.07;;;;;;;;;;5030898;28;20633;-77
2022/01/03 12:50:52;;;;;;;19.63;4.70;;;;;;;;;;5009488;28;20227;-78
2022/01/03 12:53:23;;;;;;;12.73;4.50;;;;;;;;;;5030971;28;20232;-77
2022/01/03 12:55:53;;;;;;;13.43;4.70;;;;;;;;;;5036090;28;20215;-75
2022/01/03 12:58:21;;;;;;;11.27;3.43;;;;;;;;;;5019166;28;20239;-75
2022/01/03 13:00:49;;;;;;;14.50;4.20;;;;;;;;;;5030977;28;20213;-76
2022/01/03 13:03:27;;;;;;;12.87;3.53;;;;;;;;;;5030289;28;20236;-76
2022/01/03 13:06:07;;;;;;;15.13;4.20;;;;;;;;;;5017157;28;20219;-76
2022/01/03 13:08:33;;;;;;;12.60;3.57;;;;;;;;;;5024156;28;20230;-74
2022/01/03 13:11:06;;;;;;;12.00;4.37;;;;;;;;;;5016040;28;20216;-75
2022/01/03 13:13:32;;;;;;;14.90;4.33;;;;;;;;;;5016019;28;20701;-76
2022/01/03 13:15:57;;;;;;;21.30;5.33;;;;;;;;;;5018181;28;20216;-75
2022/01/03 13:18:22;;;;;;;14.93;3.87;;;;;;;;;;5019515;28;20216;-75
2022/01/03 13:20:58;;;;;;;10.73;3.67;;;;;;;;;;5020280;28;20329;-76
2022/01/03 13:23:26;;;;;;;13.20;4.00;;;;;;;;;;5032597;28;20228;-75
2022/01/03 13:26:04;;;;;;;15.37;4.87;;;;;;;;;;5004858;28;20220;-75
2022/01/03 13:28:30;;;;;;;13.23;4.87;;;;;;;;;;5025426;28;20231;-76
2022/01/03 13:31:02;;;;;;;14.60;4.53;;;;;;;;;;5008255;28;20220;-75
2022/01/03 13:33:29;;;;;;;17.90;5.00;;;;;;;;;;5015267;28;20866;-74
2022/01/03 13:36:01;;;;;;;11.90;4.50;;;;;;;;;;4999339;28;20216;-74
2022/01/03 13:38:28;;;;;;;14.33;4.30;;;;;;;;;;5031881;28;20227;-75
2022/01/03 13:40:54;;;;;;;12.77;3.87;;;;;;;;;;5016221;28;20280;-80
2022/01/03 13:43:21;;;;;;;15.50;4.28;;;;;;;;;;5010207;28;20518;-75
2022/01/03 13:50:58;;;;;;;12.70;3.20;;;;;;;;;;5004682;28;20236;-78
2022/01/03 13:53:24;;;;;;;11.33;3.20;;;;;;;;;;5002421;28;20562;-78
2022/01/03 13:55:56;;;;;;;23.03;9.37;;;;;;;;;;5035680;28;20224;-78
2022/01/03 13:58:23;;;;;;;12.00;3.67;;;;;;;;;;5012441;28;20229;-72
2022/01/03 14:00:55;;;;;;;9.93;3.40;;;;;;;;;;5014582;28;20212;-75
2022/01/03 14:03:26;;;;;;;14.27;5.17;;;;;;;;;;5001528;28;20265;-75
2022/01/03 14:06:15;;;;;;;27.20;15.87;;;;;;;;;;4982485;28;20273;-75
2022/01/03 14:08:41;;;;;;;14.70;6.23;;;;;;;;;;5014366;28;20216;-75
2022/01/03 14:11:11;;;;;;;14.40;4.63;;;;;;;;;;4997538;28;20747;-75
2022/01/03 14:13:37;;;;;;;17.40;4.97;;;;;;;;;;5015079;28;20227;-75
2022/01/03 14:16:06;;;;;;;16.60;8.00;;;;;;;;;;4998533;28;20216;-74
2022/01/03 14:18:47;;;;;;;10.40;3.07;;;;;;;;;;5017298;28;20246;-74
2022/01/03 14:21:17;;;;;;;13.63;3.37;;;;;;;;;;5030780;28;20228;-77
2022/01/03 14:23:50;;;;;;;11.23;3.10;;;;;;;;;;5048311;28;20247;-75
2022/01/03 14:26:20;;;;;;;27.87;12.03;;;;;;;;;;5033548;28;20219;-75
2022/01/03 14:28:46;;;;;;;22.53;6.60;;;;;;;;;;5002711;28;20657;-75
2022/01/03 14:31:16;;;;;;;14.20;3.60;;;;;;;;;;5016043;28;20220;-76
2022/01/03 14:33:42;;;;;;;16.67;8.30;;;;;;;;;;4997578;28;20220;-74
2022/01/03 14:36:15;;;;;;;13.00;5.33;;;;;;;;;;4991343;28;20224;-76
2022/01/03 14:38:43;;;;;;;12.67;4.20;;;;;;;;;;5015194;28;20278;-74
2022/01/03 14:41:22;;;;;;;11.73;3.97;;;;;;;;;;5012252;28;20227;-74
2022/01/03 14:44:04;;;;;;;14.23;3.77;;;;;;;;;;5002785;28;20228;-75
2022/01/03 14:46:38;;;;;;;9.73;3.77;;;;;;;;;;5034249;28;20610;-75
2022/01/03 14:49:06;;;;;;;10.63;3.23;;;;;;;;;;5031571;28;20331;-76
2022/01/03 14:51:38;;;;;;;13.27;3.97;;;;;;;;;;4998083;28;20219;-75
2022/01/03 14:54:32;;;;;;;10.43;3.47;;;;;;;;;;4998287;28;20216;-74
2022/01/03 14:57:27;;;;;;;11.63;3.37;;;;;;;;;;4990079;28;20229;-73
2022/01/03 14:59:56;;;;;;;10.07;3.00;;;;;;;;;;5020774;28;20745;-74
2022/01/03 15:02:26;;;;;;;12.97;2.73;;;;;;;;;;5006010;28;20228;-74
2022/01/03 15:04:53;;;;;;;12.23;3.20;;;;;;;;;;5031744;28;20254;-74
2022/01/03 15:07:24;;;;;;;15.97;3.37;;;;;;;;;;4997388;28;20220;-74
2022/01/03 15:09:52;;;;;;;13.30;3.20;;;;;;;;;;5012286;28;20234;-74
2022/01/03 15:12:22;;;;;;;10.57;3.43;;;;;;;;;;4980937;28;20228;-75
2022/01/03 15:14:48;;;;;;;11.70;3.33;;;;;;;;;;4980466;28;20227;-76
2022/01/03 15:17:13;;;;;;;10.27;3.40;;;;;;;;;;4980756;28;20262;-77
2022/01/03 15:19:39;;;;;;;13.17;4.37;;;;;;;;;;5013477;28;20277;-75